createdAt,value
2023-01-13T00:01:20.012Z,6.83
2023-01-13T00:03:47.069Z,6.85
2023-01-13T00:06:16.809Z,6.85
2023-01-13T00:08:44.116Z,6.84
2023-01-13T00:11:11.417Z,6.84
2023-01-13T00:13:38.987Z,6.82
2023-01-13T00:16:08.929Z,6.82
2023-01-13T00:18:37.107Z,6.81
2023-01-13T00:21:16.599Z,6.77
2023-01-13T00:23:44.088Z,6.87
2023-01-13T00:26:13.500Z,6.90
2023-01-13T00:28:40.372Z,6.96
2023-01-13T00:31:12.908Z,6.92
2023-01-13T00:33:40.248Z,6.95
2023-01-13T00:36:09.081Z,6.99
2023-01-13T00:38:37.954Z,7.02
2023-01-13T00:41:13.257Z,7.05
2023-01-13T00:43:40.718Z,7.02
2023-01-13T00:46:09.513Z,7.04
2023-01-13T00:48:36.816Z,7.05
2023-01-13T00:51:10.119Z,7.03
2023-01-13T00:53:39.577Z,7.11
2023-01-13T00:56:11.340Z,7.08
2023-01-13T00:58:38.157Z,7.05
2023-01-13T01:01:08.582Z,7.00
2023-01-13T01:03:35.972Z,7.00
2023-01-13T01:06:09.443Z,7.01
2023-01-13T01:08:36.736Z,7.02
2023-01-13T01:11:09.297Z,6.91
2023-01-13T01:13:36.723Z,6.94
2023-01-13T01:16:07.045Z,7.00
2023-01-13T01:18:36.096Z,7.00
2023-01-13T01:21:03.787Z,7.03
2023-01-13T01:23:31.852Z,7.05
2023-01-13T01:26:07.150Z,7.02
2023-01-13T01:28:34.921Z,7.02
2023-01-13T01:31:07.040Z,6.94
2023-01-13T01:33:34.361Z,6.94
2023-01-13T01:36:02.642Z,6.93
2023-01-13T01:38:29.565Z,6.98
2023-01-13T01:40:56.457Z,6.96
2023-01-13T01:44:01.853Z,7.01
2023-01-13T01:46:41.829Z,6.99
2023-01-13T01:49:26.448Z,7.05
2023-01-13T01:52:03.230Z,6.96
2023-01-13T01:54:45.304Z,6.97
2023-01-13T01:57:18.189Z,6.93
2023-01-13T01:59:45.735Z,6.90
2023-01-13T02:02:12.846Z,6.90
2023-01-13T02:04:43.314Z,6.91
2023-01-13T02:07:10.736Z,6.88
2023-01-13T02:09:37.782Z,6.92
2023-01-13T02:12:23.789Z,6.86
2023-01-13T02:14:50.603Z,6.82
2023-01-13T02:17:36.215Z,6.74
2023-01-13T02:20:40.750Z,6.69
2023-01-13T02:23:36.884Z,6.68
2023-01-13T02:26:21.967Z,6.61
2023-01-13T02:29:41.832Z,6.50
2023-01-13T02:32:19.791Z,6.47
2023-01-13T02:35:05.424Z,6.43
2023-01-13T02:37:37.085Z,6.39
2023-01-13T02:40:09.166Z,6.41
2023-01-13T02:43:08.241Z,6.39
2023-01-13T02:45:45.570Z,6.40
2023-01-13T02:48:15.369Z,6.40
2023-01-13T02:50:48.897Z,6.41
2023-01-13T02:53:22.205Z,6.37
2023-01-13T02:55:53.648Z,6.31
2023-01-13T02:58:25.255Z,6.27
2023-01-13T03:00:52.201Z,6.25
2023-01-13T03:03:19.073Z,6.30
2023-01-13T03:05:49.699Z,6.35
2023-01-13T03:08:48.965Z,6.45
2023-01-13T03:11:18.972Z,6.43
2023-01-13T03:14:44.239Z,6.44
2023-01-13T03:17:21.744Z,6.46
2023-01-13T03:19:59.979Z,6.49
2023-01-13T03:22:44.982Z,6.54
2023-01-13T03:25:36.617Z,6.47
2023-01-13T03:28:11.954Z,6.48
2023-01-13T03:30:48.783Z,6.52
2023-01-13T03:33:24.794Z,6.52
2023-01-13T03:35:55.463Z,6.45
2023-01-13T03:38:28.379Z,6.54
2023-01-13T03:40:59.442Z,6.54
2023-01-13T03:43:53.796Z,6.55
2023-01-13T03:46:29.817Z,6.57
2023-01-13T03:49:00.077Z,6.58
2023-01-13T03:51:31.396Z,6.55
2023-01-13T03:54:05.490Z,6.63
2023-01-13T03:56:32.093Z,6.54
2023-01-13T03:59:02.487Z,6.53
2023-01-13T04:01:41.884Z,6.55
2023-01-13T04:04:17.875Z,6.49
2023-01-13T04:07:04.314Z,6.50
2023-01-13T04:09:34.318Z,6.52
2023-01-13T04:12:11.268Z,6.50
2023-01-13T04:14:38.084Z,6.53
2023-01-13T04:17:05.218Z,6.54
2023-01-13T04:19:33.076Z,6.55
2023-01-13T04:21:59.999Z,6.52
2023-01-13T04:24:26.663Z,6.52
2023-01-13T04:26:53.315Z,6.53
2023-01-13T04:29:19.953Z,6.51
2023-01-13T04:31:46.611Z,6.52
2023-01-13T04:34:13.480Z,6.45
2023-01-13T04:36:40.208Z,6.42
2023-01-13T04:39:06.959Z,6.47
2023-01-13T04:41:53.878Z,6.45
2023-01-13T04:44:20.565Z,6.46
2023-01-13T04:46:47.366Z,6.44
2023-01-13T04:49:14.054Z,6.46
2023-01-13T04:51:40.695Z,6.45
2023-01-13T04:54:07.435Z,6.45
2023-01-13T04:56:34.056Z,6.48
2023-01-13T04:59:00.696Z,6.48
2023-01-13T05:01:27.492Z,6.57
2023-01-13T05:03:54.245Z,6.58
2023-01-13T05:06:20.859Z,6.61
2023-01-13T05:08:47.622Z,6.58
2023-01-13T05:11:32.648Z,6.60
2023-01-13T05:14:17.918Z,6.56
2023-01-13T05:17:01.621Z,6.63
2023-01-13T05:19:35.323Z,6.62
2023-01-13T05:22:21.748Z,6.66
2023-01-13T05:25:06.984Z,6.67
2023-01-13T05:27:34.181Z,6.67
2023-01-13T05:30:01.242Z,6.67
2023-01-13T05:32:28.076Z,6.67
2023-01-13T05:34:55.945Z,6.58
2023-01-13T05:37:23.652Z,6.65
2023-01-13T05:40:08.941Z,6.67
2023-01-13T05:42:54.202Z,6.64
2023-01-13T05:45:20.918Z,6.58
2023-01-13T05:47:47.668Z,6.56
2023-01-13T05:50:14.524Z,6.56
2023-01-13T05:52:41.119Z,6.60
2023-01-13T05:55:08.178Z,6.56
2023-01-13T05:57:34.824Z,6.57
2023-01-13T06:00:01.834Z,6.55
2023-01-13T06:02:38.429Z,6.53
2023-01-13T06:05:05.309Z,6.55
2023-01-13T06:07:32.011Z,6.61
2023-01-13T06:09:58.702Z,6.63
2023-01-13T06:12:25.571Z,6.62
2023-01-13T06:14:52.707Z,6.63
2023-01-13T06:17:19.630Z,6.66
2023-01-13T06:19:46.375Z,6.69
2023-01-13T06:22:21.949Z,6.60
2023-01-13T06:24:55.923Z,6.55
2023-01-13T06:27:23.211Z,6.46
2023-01-13T06:29:50.195Z,6.43
2023-01-13T06:32:25.330Z,6.52
2023-01-13T06:34:58.777Z,6.54
2023-01-13T06:37:26.840Z,6.47
2023-01-13T06:39:58.643Z,6.45
2023-01-13T06:42:47.061Z,6.49
2023-01-13T06:45:14.344Z,6.46
2023-01-13T06:47:41.631Z,6.44
2023-01-13T06:50:09.123Z,6.46
2023-01-13T06:52:35.867Z,6.45
2023-01-13T06:55:03.033Z,6.51
2023-01-13T06:57:29.697Z,6.52
2023-01-13T06:59:56.362Z,6.48
2023-01-13T07:02:23.185Z,6.50
2023-01-13T07:04:49.926Z,6.48
2023-01-13T07:07:16.707Z,6.47
2023-01-13T07:09:43.405Z,6.49
2023-01-13T07:12:10.236Z,6.52
2023-01-13T07:14:55.479Z,6.55
2023-01-13T07:17:25.356Z,6.53
2023-01-13T07:19:53.290Z,6.42
2023-01-13T07:22:20.234Z,6.45
2023-01-13T07:24:46.953Z,6.54
2023-01-13T07:27:13.675Z,6.52
2023-01-13T07:29:40.446Z,6.54
2023-01-13T07:32:07.987Z,6.56
2023-01-13T07:34:35.023Z,6.59
2023-01-13T07:37:02.087Z,6.60
2023-01-13T07:39:28.835Z,6.59
2023-01-13T07:42:14.183Z,6.72
2023-01-13T07:44:40.868Z,6.75
2023-01-13T07:47:10.486Z,6.75
2023-01-13T07:49:37.397Z,6.79
2023-01-13T07:52:04.329Z,6.80
2023-01-13T07:54:40.219Z,6.88
2023-01-13T07:57:08.395Z,6.84
2023-01-13T07:59:35.118Z,6.84
2023-01-13T08:02:02.050Z,6.88
2023-01-13T08:04:30.033Z,6.99
2023-01-13T08:06:57.055Z,7.05
2023-01-13T08:09:23.987Z,7.07
2023-01-13T08:12:14.352Z,6.92
2023-01-13T08:14:41.095Z,6.88
2023-01-13T08:17:09.208Z,6.79
2023-01-13T08:19:40.119Z,6.71
2023-01-13T08:22:32.848Z,6.66
2023-01-13T08:25:10.329Z,6.64
2023-01-13T08:27:37.385Z,6.57
2023-01-13T08:30:08.205Z,6.51
2023-01-13T08:32:35.334Z,6.53
2023-01-13T08:35:02.212Z,6.48
2023-01-13T08:37:28.940Z,6.50
2023-01-13T08:39:55.794Z,6.52
2023-01-13T08:42:26.816Z,6.61
2023-01-13T08:44:54.824Z,6.67
2023-01-13T08:47:24.723Z,6.86
2023-01-13T08:49:51.593Z,7.05
2023-01-13T08:52:18.238Z,7.14
2023-01-13T08:54:44.944Z,7.22
2023-01-13T08:57:13.559Z,7.36
2023-01-13T08:59:40.267Z,7.35
2023-01-13T09:02:19.943Z,7.39
2023-01-13T09:04:48.213Z,7.37
2023-01-13T09:07:15.479Z,7.25
2023-01-13T09:09:42.586Z,7.21
2023-01-13T09:12:32.535Z,7.11
2023-01-13T09:15:04.714Z,7.08
2023-01-13T09:17:31.911Z,7.07
2023-01-13T09:19:59.007Z,7.05
2023-01-13T09:22:27.265Z,6.93
2023-01-13T09:24:55.106Z,6.95
2023-01-13T09:27:22.805Z,7.00
2023-01-13T09:29:50.258Z,7.04
2023-01-13T09:32:16.938Z,7.05
2023-01-13T09:35:01.853Z,7.29
2023-01-13T09:37:34.582Z,7.19
2023-01-13T09:40:02.802Z,7.15
2023-01-13T09:42:51.084Z,7.10
2023-01-13T09:48:19.120Z,7.28
2023-01-13T09:51:14.928Z,7.34
2023-01-13T09:54:16.742Z,7.36
2023-01-13T09:56:44.132Z,7.37
2023-01-13T09:59:40.459Z,7.41
2023-01-13T10:02:23.788Z,7.55
2023-01-13T10:05:36.240Z,7.57
2023-01-13T10:08:11.813Z,7.44
2023-01-13T10:10:46.919Z,7.42
2023-01-13T10:13:30.761Z,7.27
2023-01-13T10:16:42.378Z,7.23
2023-01-13T10:19:22.847Z,7.13
2023-01-13T10:22:46.276Z,7.12
2023-01-13T10:25:22.285Z,7.23
2023-01-13T10:27:52.936Z,7.29
2023-01-13T10:30:31.696Z,7.26
2023-01-13T10:33:10.169Z,7.39
2023-01-13T10:35:49.884Z,7.60
2023-01-13T10:38:20.033Z,7.81
2023-01-13T10:40:56.153Z,8.27
2023-01-13T10:43:23.765Z,8.65
2023-01-13T10:46:11.021Z,8.72
2023-01-13T10:48:51.726Z,9.12
2023-01-13T10:51:25.081Z,8.98
2023-01-13T10:53:51.726Z,8.95
2023-01-13T10:56:21.161Z,9.06
2023-01-13T10:58:47.940Z,9.04
2023-01-13T11:01:26.531Z,8.62
2023-01-13T11:03:55.573Z,8.36
2023-01-13T11:06:30.891Z,8.30
2023-01-13T11:08:58.615Z,8.33
2023-01-13T11:11:38.345Z,8.52
2023-01-13T11:14:36.450Z,8.66
2023-01-13T11:17:16.189Z,8.64
2023-01-13T11:19:54.581Z,8.67
2023-01-13T11:22:32.098Z,8.45
2023-01-13T11:25:02.617Z,7.63
2023-01-13T11:27:55.572Z,6.46
2023-01-13T11:30:37.524Z,5.04
2023-01-13T11:33:13.995Z,4.20
2023-01-13T11:36:12.816Z,3.72
2023-01-13T11:38:56.473Z,3.59
2023-01-13T11:41:27.021Z,3.66
2023-01-13T11:44:13.185Z,3.62
2023-01-13T11:46:44.011Z,3.55
2023-01-13T11:49:23.668Z,3.57
2023-01-13T11:51:57.775Z,3.57
2023-01-13T11:54:24.630Z,3.63
2023-01-13T11:57:00.407Z,3.79
2023-01-13T11:59:59.548Z,3.86
2023-01-13T12:02:59.767Z,4.05
2023-01-13T12:05:36.765Z,4.12
2023-01-13T12:08:37.829Z,4.20
2023-01-13T12:11:10.641Z,4.26
2023-01-13T12:14:06.750Z,4.44
2023-01-13T12:16:33.834Z,4.65
2023-01-13T12:19:25.233Z,4.78
2023-01-13T12:22:14.351Z,4.80
2023-01-13T12:24:45.511Z,4.82
2023-01-13T12:27:20.953Z,4.83
2023-01-13T12:29:51.479Z,4.86
2023-01-13T12:32:24.355Z,4.99
2023-01-13T12:35:02.003Z,5.14
2023-01-13T12:37:48.108Z,5.18
2023-01-13T12:40:20.951Z,5.28
2023-01-13T12:43:24.329Z,5.26
2023-01-13T12:45:51.164Z,5.21
2023-01-13T12:49:06.935Z,5.15
2023-01-13T12:51:57.312Z,5.14
2023-01-13T12:54:39.230Z,5.07
2023-01-13T12:57:26.531Z,5.13
2023-01-13T12:59:59.787Z,5.13
2023-01-13T13:02:41.905Z,5.25
2023-01-13T13:05:17.289Z,5.24
2023-01-13T13:07:47.567Z,5.14
2023-01-13T13:10:31.675Z,5.22
2023-01-13T13:13:19.091Z,5.15
2023-01-13T13:15:53.849Z,5.11
2023-01-13T13:18:33.075Z,5.22
2023-01-13T13:21:10.498Z,5.36
2023-01-13T13:23:48.509Z,5.30
2023-01-13T13:26:46.727Z,5.41
2023-01-13T13:29:41.346Z,5.77
2023-01-13T13:32:37.125Z,6.08
2023-01-13T13:35:20.157Z,6.52
2023-01-13T13:38:11.422Z,6.81
2023-01-13T13:41:03.512Z,6.95
2023-01-13T13:43:59.401Z,6.87
2023-01-13T13:46:44.815Z,6.51
2023-01-13T13:49:12.172Z,6.40
2023-01-13T13:51:49.329Z,6.56
2023-01-13T13:54:20.774Z,6.83
2023-01-13T13:56:50.294Z,6.86
2023-01-13T13:59:26.227Z,7.03
2023-01-13T14:02:02.462Z,7.26
2023-01-13T14:04:39.127Z,7.21
2023-01-13T14:07:21.943Z,7.26
2023-01-13T14:09:54.298Z,7.13
2023-01-13T14:12:27.508Z,6.92
2023-01-13T14:14:59.897Z,6.84
2023-01-13T14:17:28.970Z,6.75
2023-01-13T14:19:58.098Z,6.75
2023-01-13T14:22:25.016Z,6.63
2023-01-13T14:24:57.992Z,6.48
2023-01-13T14:27:30.977Z,6.44
2023-01-13T14:30:00.242Z,6.27
2023-01-13T14:32:36.760Z,6.10
2023-01-13T14:35:07.932Z,6.03
2023-01-13T14:37:40.532Z,5.93
2023-01-13T14:40:33.260Z,5.72
2023-01-13T14:43:01.226Z,5.68
2023-01-13T14:45:28.208Z,5.52
2023-01-13T14:47:55.224Z,5.35
2023-01-13T14:50:31.570Z,5.24
2023-01-13T14:53:01.994Z,5.23
2023-01-13T14:55:40.944Z,5.19
2023-01-13T14:58:28.548Z,5.08
2023-01-13T15:01:26.964Z,5.06
2023-01-13T15:03:54.754Z,4.92
2023-01-13T15:06:24.461Z,4.94
2023-01-13T15:08:52.387Z,4.85
2023-01-13T15:11:25.109Z,4.90
2023-01-13T15:13:59.543Z,4.73
2023-01-13T15:16:28.073Z,4.76
2023-01-13T15:18:56.060Z,4.82
2023-01-13T15:21:24.494Z,4.83
2023-01-13T15:23:52.476Z,4.69
2023-01-13T15:26:21.667Z,4.67
2023-01-13T15:28:49.754Z,4.62
2023-01-13T15:31:16.659Z,4.55
2023-01-13T15:33:47.375Z,4.50
2023-01-13T15:36:22.370Z,4.52
2023-01-13T15:38:49.343Z,4.47
2023-01-13T15:41:17.777Z,4.35
2023-01-13T15:44:16.837Z,4.34
2023-01-13T15:46:44.351Z,4.23
2023-01-13T15:49:36.595Z,4.20
2023-01-13T15:52:25.946Z,4.09
2023-01-13T15:54:54.484Z,4.16
2023-01-13T15:57:32.665Z,4.13
2023-01-13T16:00:04.120Z,4.07
2023-01-13T16:02:33.477Z,3.98
2023-01-13T16:05:02.901Z,3.80
2023-01-13T16:07:29.982Z,3.76
2023-01-13T16:09:56.964Z,3.79
2023-01-13T16:12:23.867Z,3.90
2023-01-13T16:14:54.506Z,3.95
2023-01-13T16:17:24.864Z,3.92
2023-01-13T16:19:52.137Z,3.98
2023-01-13T16:22:18.943Z,3.98
2023-01-13T16:24:45.768Z,4.04
2023-01-13T16:27:19.635Z,4.13
2023-01-13T16:29:47.276Z,4.18
2023-01-13T16:32:14.702Z,4.21
2023-01-13T16:34:41.901Z,4.22
2023-01-13T16:37:20.903Z,4.24
2023-01-13T16:39:48.726Z,4.29
2023-01-13T16:42:15.396Z,4.26
2023-01-13T16:44:42.399Z,4.21
2023-01-13T16:47:14.873Z,4.04
2023-01-13T16:49:42.921Z,3.97
2023-01-13T16:52:09.826Z,4.04
2023-01-13T16:54:36.627Z,4.05
2023-01-13T16:57:03.542Z,4.08
2023-01-13T16:59:30.275Z,4.12
2023-01-13T17:01:57.114Z,4.13
2023-01-13T17:04:23.855Z,4.18
2023-01-13T17:07:22.995Z,4.26
2023-01-13T17:09:49.652Z,4.25
2023-01-13T17:12:16.265Z,4.32
2023-01-13T17:14:43.525Z,4.28
2023-01-13T17:17:22.962Z,3.98
2023-01-13T17:19:50.566Z,3.45
2023-01-13T17:22:17.234Z,3.05
2023-01-13T17:24:44.062Z,2.80
2023-01-13T17:27:10.879Z,2.36
2023-01-13T17:29:37.907Z,2.11
2023-01-13T17:32:04.994Z,1.93
2023-01-13T17:34:31.758Z,1.80
2023-01-13T17:36:58.432Z,1.70
2023-01-13T17:39:27.107Z,1.65
2023-01-13T17:41:55.947Z,1.61
2023-01-13T17:44:23.611Z,1.69
2023-01-13T17:46:50.427Z,1.67
2023-01-13T17:49:19.314Z,1.54
2023-01-13T17:51:50.986Z,1.53
2023-01-13T17:54:17.727Z,1.57
2023-01-13T17:56:44.880Z,1.55
2023-01-13T17:59:12.689Z,1.51
2023-01-13T18:01:40.176Z,1.53
2023-01-13T18:04:07.168Z,1.46
2023-01-13T18:06:34.071Z,1.49
2023-01-13T18:09:01.085Z,1.58
2023-01-13T18:11:28.078Z,1.57
2023-01-13T18:14:00.161Z,1.58
2023-01-13T18:16:29.735Z,1.66
2023-01-13T18:19:17.575Z,1.74
2023-01-13T18:22:03.819Z,1.88
2023-01-13T18:24:49.050Z,1.91
2023-01-13T18:27:22.924Z,1.92
2023-01-13T18:29:52.251Z,2.10
2023-01-13T18:32:20.154Z,2.19
2023-01-13T18:34:47.935Z,2.27
2023-01-13T18:37:16.834Z,2.39
2023-01-13T18:39:43.550Z,2.49
2023-01-13T18:42:29.625Z,2.58
2023-01-13T18:44:57.843Z,2.63
2023-01-13T18:47:26.090Z,2.69
2023-01-13T18:49:52.874Z,2.80
2023-01-13T18:52:19.898Z,2.85
2023-01-13T18:54:47.504Z,2.84
2023-01-13T18:57:15.618Z,2.86
2023-01-13T18:59:42.391Z,2.92
2023-01-13T19:02:17.807Z,2.94
2023-01-13T19:04:44.980Z,2.92
2023-01-13T19:07:13.067Z,2.93
2023-01-13T19:09:40.135Z,2.99
2023-01-13T19:12:10.109Z,3.05
2023-01-13T19:14:37.742Z,3.08
2023-01-13T19:17:09.650Z,3.05
2023-01-13T19:19:42.172Z,3.10
2023-01-13T19:22:09.771Z,3.11
2023-01-13T19:24:36.887Z,3.18
2023-01-13T19:27:03.727Z,3.27
2023-01-13T19:29:33.172Z,3.27
2023-01-13T19:32:01.294Z,3.25
2023-01-13T19:34:28.445Z,3.34
2023-01-13T19:36:55.072Z,3.41
2023-01-13T19:39:22.358Z,3.42
2023-01-13T19:42:08.037Z,3.38
2023-01-13T19:44:53.414Z,3.46
2023-01-13T19:47:20.347Z,3.42
2023-01-13T19:49:46.984Z,3.51
2023-01-13T19:52:14.066Z,3.52
2023-01-13T19:54:40.766Z,3.40
2023-01-13T19:57:07.440Z,3.43
2023-01-13T19:59:35.413Z,3.43
2023-01-13T20:02:04.492Z,3.38
2023-01-13T20:04:38.491Z,3.34
2023-01-13T20:07:06.312Z,3.35
2023-01-13T20:09:34.520Z,3.32
2023-01-13T20:12:12.636Z,3.34
2023-01-13T20:14:40.965Z,3.23
2023-01-13T20:17:07.837Z,3.27
2023-01-13T20:19:34.491Z,3.24
2023-01-13T20:22:01.227Z,3.25
2023-01-13T20:24:28.032Z,3.18
2023-01-13T20:26:55.437Z,3.16
2023-01-13T20:29:22.702Z,3.15
2023-01-13T20:31:50.197Z,3.12
2023-01-13T20:34:20.537Z,3.10
2023-01-13T20:36:48.733Z,2.98
2023-01-13T20:39:26.559Z,3.00
2023-01-13T20:42:12.151Z,2.95
2023-01-13T20:44:39.137Z,2.99
2023-01-13T20:47:06.126Z,2.95
2023-01-13T20:49:33.022Z,2.93
2023-01-13T20:51:59.709Z,2.96
2023-01-13T20:54:26.441Z,2.95
2023-01-13T20:56:54.046Z,2.90
2023-01-13T20:59:20.963Z,2.89
2023-01-13T21:01:47.821Z,2.89
2023-01-13T21:04:14.784Z,2.95
2023-01-13T21:06:41.698Z,3.03
2023-01-13T21:09:08.953Z,3.10
2023-01-13T21:11:54.700Z,2.97
2023-01-13T21:14:44.975Z,2.92
2023-01-13T21:17:32.810Z,2.87
2023-01-13T21:19:59.963Z,2.84
2023-01-13T21:22:27.325Z,2.79
2023-01-13T21:24:54.070Z,2.78
2023-01-13T21:27:21.112Z,2.69
2023-01-13T21:29:47.857Z,2.61
2023-01-13T21:32:14.674Z,2.59
2023-01-13T21:34:41.689Z,2.57
2023-01-13T21:37:08.348Z,2.47
2023-01-13T21:39:34.991Z,2.47
2023-01-13T21:42:20.145Z,2.44
2023-01-13T21:45:05.352Z,2.48
2023-01-13T21:47:50.249Z,2.49
2023-01-13T21:50:23.734Z,2.46
2023-01-13T21:52:52.391Z,2.40
2023-01-13T21:55:26.300Z,2.40
2023-01-13T21:57:55.854Z,2.32
2023-01-13T22:00:24.655Z,2.26
2023-01-13T22:02:51.869Z,2.23
2023-01-13T22:05:21.532Z,2.24
2023-01-13T22:07:48.461Z,2.19
2023-01-13T22:10:20.738Z,2.22
2023-01-13T22:12:48.202Z,2.23
2023-01-13T22:15:18.160Z,2.19
2023-01-13T22:17:49.648Z,2.17
2023-01-13T22:20:19.864Z,2.17
2023-01-13T22:22:49.366Z,2.12
2023-01-13T22:25:17.272Z,2.08
2023-01-13T22:27:44.937Z,2.02
2023-01-13T22:30:18.209Z,2.02
2023-01-13T22:32:45.862Z,2.02
2023-01-13T22:35:13.951Z,2.06
2023-01-13T22:37:41.240Z,2.09
2023-01-13T22:40:10.601Z,2.13
2023-01-13T22:42:42.446Z,2.17
2023-01-13T22:45:14.039Z,2.11
2023-01-13T22:47:40.993Z,2.11
2023-01-13T22:50:08.983Z,2.13
2023-01-13T22:52:36.242Z,2.02
2023-01-13T22:55:03.568Z,2.00
2023-01-13T22:57:36.006Z,2.00
2023-01-13T23:00:06.371Z,2.04
2023-01-13T23:02:34.546Z,2.03
2023-01-13T23:05:01.692Z,1.98
2023-01-13T23:07:28.814Z,2.06
2023-01-13T23:09:55.478Z,2.10
2023-01-13T23:12:22.197Z,2.15
2023-01-13T23:14:48.876Z,2.14
2023-01-13T23:17:15.593Z,2.18
2023-01-13T23:19:42.246Z,2.27
2023-01-13T23:22:08.903Z,2.37
2023-01-13T23:24:35.611Z,2.38
2023-01-13T23:27:02.244Z,2.45
2023-01-13T23:29:30.316Z,2.54
2023-01-13T23:31:56.935Z,2.56
2023-01-13T23:34:23.593Z,2.62
2023-01-13T23:36:50.330Z,2.57
2023-01-13T23:39:16.993Z,2.57
2023-01-13T23:41:43.623Z,2.62
2023-01-13T23:44:10.276Z,2.74
2023-01-13T23:46:36.969Z,2.80
2023-01-13T23:49:03.942Z,2.85
2023-01-13T23:51:30.726Z,2.91
2023-01-13T23:53:59.079Z,2.92
2023-01-13T23:56:29.602Z,2.96
2023-01-13T23:58:56.899Z,2.99
